Time;durP1;ratioP1;P1;durP2;ratioP2;P2;SDS_P1;SDS_P2;PMS_P1;PMS_P2;Temp;Humidity;BMP_temperature;BMP_pressure;BME280_temperature;BME280_humidity;BME280_pressure;Samples;Min_cycle;Max_cycle;Signal;HPM_P1;HPM_P2
2021/07/29 00:01:29;;;;;;;10.00;2.43;;;16.80;99.90;;;;;;5079656;28;20255;-79
2021/07/29 00:03:56;;;;;;;5.07;1.93;;;16.80;99.90;;;;;;5079460;28;20204;-78
2021/07/29 00:06:24;;;;;;;6.87;1.90;;;16.60;99.90;;;;;;5082771;28;20211;-78
2021/07/29 00:08:52;;;;;;;7.63;1.73;;;16.60;99.90;;;;;;5083601;28;20697;-78
2021/07/29 00:11:19;;;;;;;5.87;1.70;;;16.60;99.90;;;;;;5080593;28;20653;-77
2021/07/29 00:13:46;;;;;;;12.50;2.10;;;16.50;99.90;;;;;;5072809;28;20310;-77
2021/07/29 00:16:13;;;;;;;5.87;1.73;;;16.50;99.90;;;;;;5073178;28;20242;-79
2021/07/29 00:21:25;;;;;;;8.13;1.97;;;16.40;99.90;;;;;;5054236;28;20522;-79
2021/07/29 00:23:52;;;;;;;7.07;1.83;;;16.40;99.90;;;;;;5069154;28;20195;-77
2021/07/29 00:26:19;;;;;;;12.53;2.50;;;16.30;99.90;;;;;;5076760;28;20636;-77
2021/07/29 00:28:46;;;;;;;13.20;2.30;;;16.20;99.90;;;;;;5076616;28;20191;-78
2021/07/29 00:31:13;;;;;;;9.13;2.20;;;16.20;99.90;;;;;;5075239;28;20282;-78
2021/07/29 00:33:40;;;;;;;6.17;1.80;;;16.20;99.90;;;;;;5075138;28;20225;-77
2021/07/29 00:36:07;;;;;;;8.00;2.10;;;16.10;99.90;;;;;;5076710;28;20235;-78
2021/07/29 00:38:35;;;;;;;6.20;2.03;;;16.10;99.90;;;;;;5077344;28;20198;-76
2021/07/29 00:41:02;;;;;;;9.43;2.30;;;16.20;99.90;;;;;;5076740;28;20278;-78
2021/07/29 00:43:29;;;;;;;13.53;3.17;;;16.20;99.90;;;;;;5076697;28;20183;-78
2021/07/29 00:45:58;;;;;;;9.97;2.77;;;16.20;99.90;;;;;;5076641;28;20195;-77
2021/07/29 00:48:25;;;;;;;6.40;2.40;;;16.20;99.90;;;;;;5073575;28;20191;-78
2021/07/29 00:50:53;;;;;;;8.43;2.50;;;16.20;99.90;;;;;;5074041;28;20287;-80
2021/07/29 00:53:20;;;;;;;6.20;2.10;;;16.20;99.90;;;;;;5076554;28;20219;-78
2021/07/29 00:55:49;;;;;;;11.30;2.60;;;16.10;99.90;;;;;;5083791;28;20204;-78
2021/07/29 00:58:16;;;;;;;9.57;2.57;;;16.20;99.90;;;;;;5076442;28;20282;-79
2021/07/29 01:00:43;;;;;;;6.70;2.50;;;16.10;99.90;;;;;;5076681;28;20198;-77
2021/07/29 01:03:10;;;;;;;5.27;2.30;;;16.20;99.90;;;;;;5073680;28;20282;-78
2021/07/29 01:05:37;;;;;;;7.00;2.43;;;16.20;99.90;;;;;;5076411;28;20233;-78
2021/07/29 01:08:05;;;;;;;7.67;2.30;;;16.20;99.90;;;;;;5076096;28;20274;-77
2021/07/29 01:10:32;;;;;;;9.03;2.30;;;16.20;99.90;;;;;;5074148;28;20222;-77
2021/07/29 01:13:00;;;;;;;7.37;2.33;;;16.20;99.90;;;;;;5075887;28;20275;-78
2021/07/29 01:15:27;;;;;;;7.47;2.23;;;16.30;99.90;;;;;;5076357;28;20229;-78
2021/07/29 01:18:00;;;;;;;5.60;2.40;;;16.30;99.90;;;;;;5070570;28;20299;-79
2021/07/29 01:20:29;;;;;;;4.83;1.73;;;16.30;99.90;;;;;;5075622;28;20188;-78
2021/07/29 01:22:55;;;;;;;8.73;2.47;;;16.30;99.90;;;;;;5075734;28;20222;-78
2021/07/29 01:25:22;;;;;;;5.70;2.20;;;16.30;99.90;;;;;;5074063;28;20227;-78
2021/07/29 01:27:49;;;;;;;8.00;2.30;;;16.40;99.90;;;;;;5075931;28;20210;-78
2021/07/29 01:30:16;;;;;;;7.27;1.93;;;16.30;99.90;;;;;;5075781;28;20274;-79
2021/07/29 01:32:43;;;;;;;5.40;2.30;;;16.30;99.90;;;;;;5072889;28;20523;-77
2021/07/29 01:35:11;;;;;;;6.07;2.13;;;16.30;99.90;;;;;;5075607;28;20294;-78
2021/07/29 01:37:40;;;;;;;9.03;2.77;;;16.30;99.90;;;;;;5076075;28;20209;-78
2021/07/29 01:40:09;;;;;;;10.50;2.40;;;16.30;99.90;;;;;;5075926;28;20282;-77
2021/07/29 01:42:35;;;;;;;8.53;2.37;;;16.20;99.90;;;;;;5075550;28;20192;-79
2021/07/29 01:45:03;;;;;;;4.90;2.00;;;16.20;99.90;;;;;;5075839;28;20219;-78
2021/07/29 01:47:30;;;;;;;4.53;2.00;;;16.10;99.90;;;;;;5071724;28;20278;-78
2021/07/29 01:49:57;;;;;;;6.53;2.27;;;16.10;99.90;;;;;;5073052;28;20274;-78
2021/07/29 01:52:24;;;;;;;8.33;2.17;;;16.10;99.90;;;;;;5073242;28;20653;-78
2021/07/29 01:54:52;;;;;;;8.83;2.27;;;16.10;99.90;;;;;;5075719;28;20295;-78
2021/07/29 01:57:19;;;;;;;4.57;2.10;;;16.10;99.90;;;;;;5073366;28;20223;-79
2021/07/29 01:59:47;;;;;;;4.70;2.00;;;16.10;99.90;;;;;;5075388;28;20246;-80
2021/07/29 02:02:14;;;;;;;7.47;2.00;;;16.00;99.90;;;;;;5073995;28;20223;-78
2021/07/29 02:04:41;;;;;;;7.77;2.07;;;16.00;99.90;;;;;;5089751;28;20191;-78
2021/07/29 02:07:07;;;;;;;6.77;2.10;;;15.90;99.90;;;;;;5075101;28;20282;-78
2021/07/29 02:09:34;;;;;;;15.03;2.47;;;15.80;99.90;;;;;;5075660;28;20226;-78
2021/07/29 02:12:03;;;;;;;7.83;2.67;;;15.70;99.90;;;;;;5066890;28;20223;-80
2021/07/29 02:14:30;;;;;;;11.00;2.40;;;15.70;99.90;;;;;;5074916;28;20302;-79
2021/07/29 02:16:57;;;;;;;10.17;2.03;;;15.70;99.90;;;;;;5076282;28;20622;-80
2021/07/29 02:19:24;;;;;;;8.63;1.97;;;15.70;99.90;;;;;;5075489;28;20252;-79
2021/07/29 02:21:51;;;;;;;8.37;2.40;;;15.80;99.90;;;;;;5074594;28;20219;-81
2021/07/29 02:24:18;;;;;;;5.27;2.00;;;15.90;99.90;;;;;;5075208;28;20241;-79
2021/07/29 02:26:45;;;;;;;9.00;2.00;;;16.00;99.90;;;;;;5075338;28;20329;-79
2021/07/29 02:29:13;;;;;;;7.20;2.17;;;16.00;99.90;;;;;;5074954;28;20275;-79
2021/07/29 02:31:40;;;;;;;7.40;2.07;;;15.90;99.90;;;;;;5074827;28;20278;-81
2021/07/29 02:34:07;;;;;;;9.03;2.43;;;15.80;99.90;;;;;;5074586;28;20679;-80
2021/07/29 02:36:34;;;;;;;8.53;2.20;;;15.70;99.90;;;;;;5074436;28;20199;-79
2021/07/29 02:39:01;;;;;;;5.70;2.10;;;15.70;99.90;;;;;;5074596;28;20230;-78
2021/07/29 02:41:28;;;;;;;9.87;1.87;;;15.70;99.90;;;;;;5074371;28;20278;-81
2021/07/29 02:43:55;;;;;;;11.03;2.27;;;15.60;99.90;;;;;;5073841;28;20278;-79
2021/07/29 02:46:23;;;;;;;6.73;2.40;;;15.50;99.90;;;;;;5074473;28;20237;-79
2021/07/29 02:48:50;;;;;;;9.77;2.60;;;15.40;99.90;;;;;;5074689;28;20211;-80
2021/07/29 02:51:17;;;;;;;10.63;2.50;;;15.40;99.90;;;;;;5074388;28;20672;-79
2021/07/29 02:53:44;;;;;;;9.17;2.07;;;15.40;99.90;;;;;;5074297;28;20621;-79
2021/07/29 02:56:11;;;;;;;8.07;2.50;;;15.40;99.90;;;;;;5073896;28;20247;-80
2021/07/29 02:58:38;;;;;;;5.40;2.37;;;15.40;99.90;;;;;;5074346;28;20683;-80
2021/07/29 03:01:05;;;;;;;8.80;2.20;;;15.30;99.90;;;;;;5073831;28;20248;-80
2021/07/29 03:03:33;;;;;;;9.57;2.60;;;15.30;99.90;;;;;;5073718;28;20275;-80
2021/07/29 03:06:01;;;;;;;6.77;2.17;;;15.20;99.90;;;;;;5073471;28;20691;-80
2021/07/29 03:08:28;;;;;;;7.63;2.20;;;15.20;99.90;;;;;;5074070;28;20202;-79
2021/07/29 03:10:58;;;;;;;12.70;2.17;;;15.10;99.90;;;;;;5073781;28;20721;-80
2021/07/29 03:13:25;;;;;;;8.17;2.00;;;15.10;99.90;;;;;;5073803;28;20198;-81
2021/07/29 03:15:52;;;;;;;8.30;2.20;;;15.10;99.90;;;;;;5073129;28;20302;-79
2021/07/29 03:18:20;;;;;;;8.80;2.23;;;15.10;99.90;;;;;;5071472;28;20278;-79
2021/07/29 03:20:48;;;;;;;9.83;2.17;;;15.00;99.90;;;;;;5071729;28;20212;-79
2021/07/29 03:23:15;;;;;;;18.40;3.27;;;15.00;99.90;;;;;;5071615;28;20283;-80
2021/07/29 03:25:42;;;;;;;8.33;2.50;;;15.00;99.90;;;;;;5071926;28;20198;-80
2021/07/29 03:28:09;;;;;;;13.43;2.70;;;15.00;99.90;;;;;;5072314;28;20282;-80
2021/07/29 03:30:36;;;;;;;9.97;2.00;;;14.90;99.90;;;;;;5071902;28;20290;-79
2021/07/29 03:33:05;;;;;;;10.03;2.40;;;14.90;99.90;;;;;;5073673;28;20274;-80
2021/07/29 03:35:32;;;;;;;9.73;2.63;;;14.90;99.90;;;;;;5073654;28;20260;-81
2021/07/29 03:38:00;;;;;;;10.27;2.43;;;14.90;99.90;;;;;;5073506;28;20249;-79
2021/07/29 03:40:27;;;;;;;6.97;2.13;;;14.80;99.90;;;;;;5073382;28;20286;-80
2021/07/29 03:42:54;;;;;;;12.70;2.40;;;14.80;99.90;;;;;;5073444;28;20257;-79
2021/07/29 03:45:21;;;;;;;12.03;1.90;;;14.70;99.90;;;;;;5073277;28;20230;-79
2021/07/29 03:47:48;;;;;;;10.93;2.40;;;14.70;99.90;;;;;;5073149;28;20229;-80
2021/07/29 03:50:15;;;;;;;7.70;2.40;;;14.70;99.90;;;;;;5073372;28;20226;-79
2021/07/29 03:52:42;;;;;;;12.80;2.53;;;14.60;99.90;;;;;;5073237;28;20279;-80
2021/07/29 03:55:10;;;;;;;8.90;2.30;;;14.60;99.90;;;;;;5073152;28;20681;-81
2021/07/29 03:57:37;;;;;;;15.97;2.83;;;14.60;99.90;;;;;;5072978;28;20238;-78
2021/07/29 04:00:06;;;;;;;14.47;2.40;;;14.60;99.90;;;;;;5072939;28;20591;-79
2021/07/29 04:02:34;;;;;;;12.00;2.17;;;14.50;99.90;;;;;;5072964;28;20669;-79
2021/07/29 04:05:01;;;;;;;12.50;2.40;;;14.60;99.90;;;;;;5073216;28;20290;-80
2021/07/29 04:07:28;;;;;;;20.20;2.87;;;14.60;99.90;;;;;;5073258;28;20614;-79
2021/07/29 04:09:54;;;;;;;8.43;2.43;;;14.60;99.90;;;;;;5073173;28;20226;-80
2021/07/29 04:12:23;;;;;;;9.97;2.33;;;14.50;99.90;;;;;;5073218;28;20218;-79
2021/07/29 04:14:49;;;;;;;13.03;2.63;;;14.60;99.90;;;;;;5072997;28;20215;-79
2021/07/29 04:17:17;;;;;;;11.90;2.57;;;14.60;99.90;;;;;;5073345;28;20278;-78
2021/07/29 04:19:44;;;;;;;7.00;2.40;;;14.60;99.90;;;;;;5073050;28;20194;-79
2021/07/29 04:22:11;;;;;;;9.13;2.77;;;14.60;99.90;;;;;;5072989;28;20215;-79
2021/07/29 04:24:39;;;;;;;15.53;2.70;;;14.60;99.90;;;;;;5072955;28;20219;-80
2021/07/29 04:27:06;;;;;;;11.13;3.17;;;14.60;99.90;;;;;;5072695;28;20188;-79
2021/07/29 04:29:35;;;;;;;13.83;2.57;;;14.50;99.90;;;;;;5073003;28;20274;-79
2021/07/29 04:32:04;;;;;;;15.37;2.70;;;14.60;99.90;;;;;;5072927;28;20230;-78
2021/07/29 04:34:31;;;;;;;9.03;2.30;;;14.60;99.90;;;;;;5072560;28;20200;-78
2021/07/29 04:36:58;;;;;;;8.83;2.33;;;14.60;99.90;;;;;;5072762;28;20287;-79
2021/07/29 04:39:26;;;;;;;14.07;2.70;;;14.60;99.90;;;;;;5072778;28;20219;-79
2021/07/29 04:41:53;;;;;;;12.03;2.40;;;14.70;99.90;;;;;;5073296;28;20235;-79
2021/07/29 04:44:20;;;;;;;13.13;2.33;;;14.70;99.90;;;;;;5072757;28;20195;-79
2021/07/29 04:46:48;;;;;;;19.73;3.23;;;14.70;99.90;;;;;;5072656;28;20222;-78
2021/07/29 04:49:18;;;;;;;12.30;2.13;;;14.70;99.90;;;;;;5072765;28;20226;-79
2021/07/29 04:51:46;;;;;;;12.27;2.57;;;14.80;99.90;;;;;;5072865;28;20556;-78
2021/07/29 04:54:14;;;;;;;12.77;2.63;;;14.80;99.90;;;;;;5072703;28;20194;-79
2021/07/29 04:56:40;;;;;;;12.10;2.40;;;14.90;99.90;;;;;;5072551;28;20227;-79
2021/07/29 04:59:07;;;;;;;9.90;2.30;;;15.00;99.90;;;;;;5072655;28;20286;-78
2021/07/29 05:01:37;;;;;;;9.10;2.30;;;15.10;99.90;;;;;;5072496;28;20192;-80
2021/07/29 05:04:06;;;;;;;9.83;2.47;;;15.10;99.90;;;;;;5072592;28;20619;-79
2021/07/29 05:06:35;;;;;;;8.10;2.30;;;15.30;99.90;;;;;;5072645;28;20667;-79
2021/07/29 05:09:02;;;;;;;8.83;2.23;;;15.30;99.90;;;;;;5076185;28;20227;-78
2021/07/29 05:11:29;;;;;;;11.77;2.23;;;15.50;99.90;;;;;;5075999;28;20270;-79
2021/07/29 05:13:56;;;;;;;9.10;2.60;;;15.70;99.90;;;;;;5076187;28;20219;-79
2021/07/29 05:16:23;;;;;;;9.53;2.30;;;16.00;99.90;;;;;;5076036;28;20233;-78
2021/07/29 05:18:49;;;;;;;7.47;1.97;;;16.70;99.90;;;;;;5076051;28;20275;-79
2021/07/29 05:21:18;;;;;;;9.10;2.03;;;17.60;99.90;;;;;;5075920;28;20220;-79
2021/07/29 05:23:45;;;;;;;6.03;1.70;;;18.70;99.90;;;;;;5076189;28;20215;-79
2021/07/29 05:26:16;;;;;;;6.00;2.03;;;19.60;99.90;;;;;;5075741;28;20230;-80
2021/07/29 05:28:43;;;;;;;7.50;2.03;;;20.40;99.90;;;;;;5075820;28;20195;-80
2021/07/29 05:31:10;;;;;;;8.03;2.27;;;21.40;99.90;;;;;;5075621;28;20637;-79
2021/07/29 05:33:37;;;;;;;6.27;2.00;;;21.90;99.90;;;;;;5075740;28;20282;-80
2021/07/29 05:36:05;;;;;;;7.28;1.83;;;22.10;99.90;;;;;;5075742;28;20226;-80
2021/07/29 05:38:34;;;;;;;7.15;2.15;;;22.70;99.90;;;;;;5075759;28;20515;-80
2021/07/29 05:41:04;;;;;;;8.35;2.28;;;23.10;99.90;;;;;;5075913;28;20253;-79
2021/07/29 05:43:32;;;;;;;8.48;2.30;;;23.60;99.90;;;;;;5075577;28;20586;-80
2021/07/29 05:45:59;;;;;;;6.25;2.33;;;24.10;99.90;;;;;;5075687;28;20195;-79
2021/07/29 05:48:26;;;;;;;8.15;2.10;;;24.80;99.90;;;;;;5075339;28;20219;-80
2021/07/29 05:50:56;;;;;;;4.15;2.10;;;25.20;99.90;;;;;;5075403;28;20354;-80
2021/07/29 05:53:23;;;;;;;9.70;2.20;;;25.30;99.90;;;;;;5075102;28;20536;-79
2021/07/29 05:55:53;;;;;;;5.78;1.90;;;25.50;99.90;;;;;;5075274;28;20211;-80
2021/07/29 05:58:20;;;;;;;9.13;2.05;;;25.70;99.90;;;;;;5075204;28;20196;-80
2021/07/29 06:00:46;;;;;;;7.43;2.20;;;25.70;99.90;;;;;;5075046;28;20187;-80
2021/07/29 06:03:13;;;;;;;9.35;1.90;;;25.90;99.90;;;;;;5075817;28;20274;-79
2021/07/29 06:05:40;;;;;;;5.45;1.95;;;26.40;99.90;;;;;;5074621;28;20243;-79
2021/07/29 06:08:07;;;;;;;9.05;2.15;;;27.00;99.90;;;;;;5074931;28;20712;-79
2021/07/29 06:10:34;;;;;;;6.70;1.85;;;26.90;99.90;;;;;;5075450;28;20279;-79
2021/07/29 06:13:03;;;;;;;8.88;2.28;;;26.80;99.90;;;;;;5075111;28;20612;-80
2021/07/29 06:15:30;;;;;;;8.73;1.95;;;26.20;99.90;;;;;;5080603;28;20274;-79
2021/07/29 06:17:58;;;;;;;7.65;2.22;;;26.40;99.90;;;;;;5096865;28;20223;-79
2021/07/29 06:20:25;;;;;;;10.57;2.67;;;26.70;99.90;;;;;;5097000;28;20192;-79
2021/07/29 06:22:52;;;;;;;7.80;2.28;;;26.70;99.90;;;;;;5098085;28;20208;-80
2021/07/29 06:25:19;;;;;;;5.53;1.88;;;26.70;99.90;;;;;;5096849;28;20191;-79
2021/07/29 06:27:47;;;;;;;8.77;2.58;;;26.70;99.90;;;;;;5096754;28;20196;-80
2021/07/29 06:30:16;;;;;;;6.45;2.13;;;27.30;99.90;;;;;;5096775;28;20244;-79
2021/07/29 06:32:43;;;;;;;13.45;2.45;;;27.30;99.90;;;;;;5096359;28;20255;-78
2021/07/29 06:35:11;;;;;;;7.82;2.17;;;27.40;99.90;;;;;;5098224;28;20183;-79
2021/07/29 06:37:38;;;;;;;7.88;2.22;;;27.20;99.90;;;;;;5097340;22;20240;-78
2021/07/29 06:40:07;;;;;;;11.27;2.40;;;27.40;99.90;;;;;;5055876;28;20212;-78
2021/07/29 06:42:34;;;;;;;13.45;2.63;;;27.50;99.90;;;;;;5039647;28;20228;-80
2021/07/29 06:45:01;;;;;;;10.77;2.92;;;27.30;99.90;;;;;;5034756;28;20319;-79
2021/07/29 06:47:31;;;;;;;9.63;2.30;;;26.90;99.90;;;;;;5034592;28;20228;-79
2021/07/29 06:49:59;;;;;;;7.82;2.20;;;26.70;99.90;;;;;;5034313;28;20580;-80
2021/07/29 06:52:26;;;;;;;7.68;2.40;;;26.70;99.90;;;;;;5034348;28;20671;-79
2021/07/29 06:54:53;;;;;;;10.13;2.28;;;26.30;99.90;;;;;;5034031;28;20193;-80
2021/07/29 06:57:20;;;;;;;10.80;2.58;;;25.80;99.90;;;;;;5034280;28;20308;-79
2021/07/29 06:59:46;;;;;;;9.23;2.10;;;25.10;99.90;;;;;;5034409;28;20193;-80
2021/07/29 07:02:13;;;;;;;10.52;2.67;;;25.30;99.90;;;;;;5033918;28;20282;-79
2021/07/29 07:04:42;;;;;;;6.90;2.42;;;26.20;99.90;;;;;;5034304;28;20272;-79
2021/07/29 07:07:14;;;;;;;12.07;2.25;;;25.40;99.90;;;;;;5034018;28;20283;-79
2021/07/29 07:09:41;;;;;;;9.88;2.78;;;25.00;99.90;;;;;;5033976;28;20204;-79
2021/07/29 07:12:09;;;;;;;7.90;2.58;;;24.60;99.90;;;;;;5034660;28;20227;-79
2021/07/29 07:14:36;;;;;;;11.95;2.80;;;24.70;99.90;;;;;;5033743;28;20280;-79
2021/07/29 07:17:05;;;;;;;9.32;2.70;;;24.90;99.90;;;;;;5033474;28;20307;-79
2021/07/29 07:19:32;;;;;;;10.85;2.90;;;24.90;99.90;;;;;;5033746;28;20204;-79
2021/07/29 07:22:01;;;;;;;11.88;2.72;;;24.10;99.90;;;;;;5033531;28;20670;-80
2021/07/29 07:24:28;;;;;;;7.20;2.67;;;23.40;99.90;;;;;;5033493;28;20213;-79
2021/07/29 07:26:55;;;;;;;6.75;2.42;;;23.30;99.90;;;;;;5033475;28;20276;-80
2021/07/29 07:29:22;;;;;;;10.80;2.55;;;22.80;99.90;;;;;;5033393;28;20283;-79
2021/07/29 07:31:49;;;;;;;8.70;2.40;;;22.30;99.90;;;;;;5033504;28;20306;-80
2021/07/29 07:34:16;;;;;;;12.63;2.40;;;22.10;99.90;;;;;;5033530;28;20220;-79
2021/07/29 07:36:43;;;;;;;8.80;2.70;;;22.10;99.90;;;;;;5033214;28;20312;-79
2021/07/29 07:39:12;;;;;;;8.40;2.72;;;22.10;99.90;;;;;;5033752;28;20311;-78
2021/07/29 07:41:39;;;;;;;9.50;2.60;;;22.00;99.90;;;;;;5033543;28;20292;-79
2021/07/29 07:44:06;;;;;;;8.73;2.60;;;21.70;99.90;;;;;;5033288;28;20292;-80
2021/07/29 07:46:32;;;;;;;9.98;2.47;;;22.10;99.90;;;;;;5033183;28;20228;-79
2021/07/29 07:48:59;;;;;;;13.13;2.75;;;22.40;99.90;;;;;;5033152;28;20284;-80
2021/07/29 07:51:28;;;;;;;10.07;2.85;;;22.30;99.90;;;;;;5033071;28;20193;-79
2021/07/29 07:53:55;;;;;;;9.57;2.70;;;22.60;99.90;;;;;;5033105;28;20686;-79
2021/07/29 07:56:23;;;;;;;11.25;2.60;;;23.80;99.90;;;;;;5032991;28;20698;-79
2021/07/29 07:58:50;;;;;;;13.70;2.78;;;23.90;99.90;;;;;;5033080;28;20225;-80
2021/07/29 08:01:19;;;;;;;8.63;2.30;;;23.60;99.90;;;;;;5033383;28;20193;-80
2021/07/29 08:03:46;;;;;;;8.82;2.90;;;23.90;99.90;;;;;;5033073;28;20558;-79
2021/07/29 08:06:13;;;;;;;14.93;2.92;;;24.60;99.90;;;;;;5033290;28;20192;-80
2021/07/29 08:08:42;;;;;;;8.77;2.42;;;25.50;99.90;;;;;;5033083;28;20228;-79
2021/07/29 08:11:09;;;;;;;8.95;2.45;;;26.40;99.90;;;;;;5032862;28;20753;-79
2021/07/29 08:13:38;;;;;;;6.03;2.15;;;27.60;99.90;;;;;;5032959;28;20287;-79
2021/07/29 08:16:08;;;;;;;7.75;2.58;;;26.80;99.90;;;;;;5033188;28;20306;-80
2021/07/29 08:18:35;;;;;;;8.10;2.50;;;25.20;99.90;;;;;;5033034;28;20197;-80
2021/07/29 08:21:07;;;;;;;11.20;2.50;;;24.00;99.90;;;;;;5032974;28;20194;-79
2021/07/29 08:23:34;;;;;;;9.23;2.45;;;23.60;99.90;;;;;;5032833;28;20726;-80
2021/07/29 08:26:01;;;;;;;10.00;2.42;;;23.70;99.90;;;;;;5032956;28;20288;-79
2021/07/29 08:28:28;;;;;;;9.55;2.25;;;23.50;99.90;;;;;;5032843;28;20196;-80
2021/07/29 08:30:56;;;;;;;10.80;2.40;;;24.20;99.90;;;;;;5032878;28;20247;-80
2021/07/29 08:33:23;;;;;;;9.15;2.75;;;24.40;99.90;;;;;;5032963;28;20287;-79
2021/07/29 08:35:50;;;;;;;9.27;2.33;;;24.40;99.90;;;;;;5032599;28;20288;-80
2021/07/29 08:38:17;;;;;;;8.82;2.30;;;24.30;99.90;;;;;;5032546;28;20300;-79
2021/07/29 08:40:43;;;;;;;12.40;2.50;;;24.50;99.90;;;;;;5032729;28;20532;-79
2021/07/29 08:43:11;;;;;;;8.15;2.75;;;24.50;99.90;;;;;;5035310;28;20203;-79
2021/07/29 08:45:44;;;;;;;10.45;2.83;;;25.00;99.90;;;;;;5036725;28;20243;-78
2021/07/29 08:48:12;;;;;;;10.13;2.22;;;25.70;99.90;;;;;;5036856;28;20215;-79
2021/07/29 08:50:39;;;;;;;7.60;2.20;;;26.60;99.90;;;;;;5036318;28;20700;-79
2021/07/29 08:53:06;;;;;;;7.63;2.25;;;25.80;99.90;;;;;;5036647;28;20254;-79
2021/07/29 08:55:33;;;;;;;9.52;2.35;;;25.00;99.90;;;;;;5036653;28;20283;-81
2021/07/29 08:58:00;;;;;;;6.90;2.45;;;25.10;99.90;;;;;;5036244;28;20316;-80
2021/07/29 09:00:27;;;;;;;6.30;2.28;;;25.20;99.90;;;;;;5036112;28;20204;-79
2021/07/29 09:02:54;;;;;;;8.68;2.65;;;25.50;99.90;;;;;;5036240;28;20266;-80
2021/07/29 09:05:22;;;;;;;7.05;2.20;;;26.40;99.90;;;;;;5036056;28;20219;-79
2021/07/29 09:08:03;;;;;;;7.70;2.35;;;27.30;99.90;;;;;;5036285;28;20193;-79
2021/07/29 09:10:30;;;;;;;9.20;1.98;;;28.30;99.90;;;;;;5036047;28;20197;-79
2021/07/29 09:13:11;;;;;;;9.77;2.83;;;28.50;99.90;;;;;;5036251;28;20200;-80
2021/07/29 09:15:39;;;;;;;9.38;2.50;;;27.50;99.90;;;;;;5035910;28;20647;-79
2021/07/29 09:18:07;;;;;;;8.00;2.20;;;26.10;99.90;;;;;;5035746;28;20583;-79
2021/07/29 09:20:37;;;;;;;6.82;2.22;;;26.70;99.90;;;;;;5035856;28;20545;-79
2021/07/29 09:23:14;;;;;;;6.85;2.42;;;26.50;99.90;;;;;;5036119;28;20272;-79
2021/07/29 09:25:41;;;;;;;9.00;2.08;;;26.00;99.90;;;;;;5035995;28;20550;-80
2021/07/29 09:28:08;;;;;;;5.38;1.90;;;26.80;99.90;;;;;;5036015;28;20196;-80
2021/07/29 09:30:35;;;;;;;5.25;2.05;;;27.80;99.90;;;;;;5035879;28;20189;-79
2021/07/29 09:33:05;;;;;;;8.23;2.40;;;28.20;99.90;;;;;;5035761;28;20600;-79
2021/07/29 09:35:44;;;;;;;6.45;2.00;;;28.20;99.90;;;;;;5035807;28;20197;-79
2021/07/29 09:38:20;;;;;;;8.00;2.38;;;28.20;99.90;;;;;;5035719;28;20579;-79
2021/07/29 09:40:51;;;;;;;7.10;2.22;;;28.00;99.90;;;;;;5035760;28;20673;-79
2021/07/29 09:43:20;;;;;;;7.65;2.00;;;28.30;99.90;;;;;;5035593;28;20193;-79
2021/07/29 09:45:48;;;;;;;5.53;2.00;;;28.70;99.90;;;;;;5035370;28;20223;-80
2021/07/29 09:48:17;;;;;;;8.85;1.92;;;28.20;99.90;;;;;;5035326;28;20197;-80
2021/07/29 09:50:46;;;;;;;6.13;1.90;;;27.60;99.90;;;;;;5035691;28;20188;-80
2021/07/29 09:53:14;;;;;;;7.22;2.20;;;27.70;99.90;;;;;;5035360;28;20205;-79
2021/07/29 09:55:41;;;;;;;7.45;1.95;;;27.40;99.90;;;;;;5035169;28;20564;-79
2021/07/29 09:58:08;;;;;;;5.15;2.17;;;28.80;99.90;;;;;;5035098;28;20231;-81
2021/07/29 10:00:37;;;;;;;5.88;1.73;;;30.20;99.90;;;;;;5035028;28;20232;-80
2021/07/29 10:03:06;;;;;;;5.55;2.10;;;29.70;99.90;;;;;;5035302;28;20647;-80
2021/07/29 10:05:50;;;;;;;7.95;2.10;;;29.00;99.90;;;;;;5035449;28;20288;-81
2021/07/29 10:08:26;;;;;;;7.05;1.98;;;27.60;99.90;;;;;;5034992;28;20599;-80
2021/07/29 10:10:53;;;;;;;7.97;2.30;;;26.80;99.90;;;;;;5035034;28;20192;-80
2021/07/29 10:13:20;;;;;;;6.32;1.92;;;28.30;99.90;;;;;;5034827;28;20247;-80
2021/07/29 10:15:47;;;;;;;4.93;2.10;;;28.20;99.90;;;;;;5035019;28;20232;-81
2021/07/29 10:18:15;;;;;;;6.25;1.83;;;26.80;99.90;;;;;;5034695;28;20311;-80
2021/07/29 10:20:43;;;;;;;5.85;1.95;;;27.10;99.90;;;;;;5034807;28;20280;-79
2021/07/29 10:23:30;;;;;;;7.57;2.03;;;28.80;99.90;;;;;;5034644;28;20651;-80
2021/07/29 10:26:06;;;;;;;8.63;2.00;;;27.40;99.90;;;;;;5034705;28;20219;-80
2021/07/29 10:28:38;;;;;;;6.28;2.17;;;26.90;99.90;;;;;;5034563;28;20650;-80
2021/07/29 10:31:06;;;;;;;5.55;1.85;;;27.40;99.90;;;;;;5034687;28;20197;-79
2021/07/29 10:33:33;;;;;;;6.63;2.22;;;26.60;99.90;;;;;;5034468;28;20224;-79
2021/07/29 10:36:01;;;;;;;5.40;2.03;;;26.50;99.90;;;;;;5034392;28;20228;-79
2021/07/29 10:39:06;;;;;;;5.88;2.10;;;26.30;99.90;;;;;;5034471;28;20259;-80
2021/07/29 10:41:53;;;;;;;5.20;2.08;;;26.50;99.90;;;;;;4992995;28;20190;-80
2021/07/29 10:44:57;;;;;;;5.95;1.80;;;26.30;99.90;;;;;;5032144;28;20650;-79
2021/07/29 10:47:44;;;;;;;7.82;2.30;;;26.40;99.90;;;;;;5034486;28;20196;-78
2021/07/29 10:50:14;;;;;;;6.90;1.92;;;27.50;99.90;;;;;;5034313;28;20420;-79
2021/07/29 10:52:45;;;;;;;7.22;1.95;;;29.10;99.90;;;;;;5033971;28;20654;-79
2021/07/29 10:55:13;;;;;;;3.42;1.58;;;29.30;99.90;;;;;;5033849;28;20279;-79
2021/07/29 10:57:41;;;;;;;6.90;2.40;;;29.50;99.90;;;;;;5033543;28;20678;-79
2021/07/29 11:00:09;;;;;;;6.97;2.20;;;30.10;99.90;;;;;;5031075;28;20197;-78
2021/07/29 11:02:47;;;;;;;11.57;2.05;;;30.10;99.90;;;;;;5033280;28;20669;-79
2021/07/29 11:05:19;;;;;;;8.48;2.22;;;29.80;99.90;;;;;;5032769;28;20667;-79
2021/07/29 11:07:48;;;;;;;10.75;1.80;;;27.80;99.90;;;;;;5014157;28;20651;-79
2021/07/29 11:10:17;;;;;;;6.03;2.17;;;27.80;99.90;;;;;;5026469;28;20278;-79
2021/07/29 11:12:47;;;;;;;7.20;2.22;;;28.20;99.90;;;;;;5033627;28;20200;-79
2021/07/29 11:15:15;;;;;;;7.18;2.30;;;29.50;99.90;;;;;;5033248;28;20285;-79
2021/07/29 11:17:42;;;;;;;5.03;2.20;;;30.00;99.90;;;;;;5033152;28;20304;-79
2021/07/29 11:20:11;;;;;;;5.70;2.25;;;29.60;99.90;;;;;;5033629;28;20283;-79
2021/07/29 11:22:46;;;;;;;6.50;2.03;;;28.60;99.90;;;;;;5032364;28;20292;-79
2021/07/29 11:25:13;;;;;;;5.82;2.10;;;27.30;99.90;;;;;;5032941;28;20196;-79
2021/07/29 11:27:42;;;;;;;6.22;2.50;;;25.80;99.90;;;;;;5032880;28;20280;-79
2021/07/29 11:30:12;;;;;;;13.00;2.40;;;24.70;99.90;;;;;;5033416;28;20189;-78
2021/07/29 11:32:40;;;;;;;10.55;2.22;;;24.10;99.90;;;;;;5033110;28;20221;-79
2021/07/29 11:35:10;;;;;;;8.13;2.25;;;23.50;99.90;;;;;;5032345;28;20280;-79
2021/07/29 11:37:39;;;;;;;7.45;2.38;;;23.60;99.90;;;;;;5032970;28;20224;-79
2021/07/29 11:40:08;;;;;;;7.18;2.13;;;23.60;99.90;;;;;;5033012;28;20275;-79
2021/07/29 11:42:39;;;;;;;6.90;2.35;;;23.60;99.90;;;;;;5032979;28;20283;-78
2021/07/29 11:45:24;;;;;;;5.78;2.28;;;23.60;99.90;;;;;;5033054;28;20538;-79
2021/07/29 11:47:52;;;;;;;8.68;2.35;;;23.60;99.90;;;;;;5033109;28;20224;-79
2021/07/29 11:50:36;;;;;;;6.68;2.50;;;23.40;99.90;;;;;;5038248;28;20624;-78
2021/07/29 11:53:03;;;;;;;9.18;2.38;;;23.00;99.90;;;;;;5049944;28;20649;-77
2021/07/29 11:55:30;;;;;;;6.88;2.42;;;24.30;99.90;;;;;;5021355;28;20189;-77
2021/07/29 11:58:05;;;;;;;9.77;2.30;;;26.10;99.90;;;;;;5032136;28;20254;-76
2021/07/29 12:00:34;;;;;;;8.55;2.25;;;26.60;99.90;;;;;;5032622;28;20409;-75
2021/07/29 12:03:02;;;;;;;7.57;2.10;;;27.20;99.90;;;;;;5032635;28;20621;-76
2021/07/29 12:05:30;;;;;;;6.38;1.90;;;26.80;99.90;;;;;;5031970;28;20280;-78
2021/07/29 12:07:57;;;;;;;9.70;2.33;;;27.40;99.90;;;;;;5032223;28;20221;-76
2021/07/29 12:10:27;;;;;;;6.50;1.90;;;27.30;99.90;;;;;;5032391;28;20283;-76
2021/07/29 12:12:55;;;;;;;7.90;2.17;;;28.00;99.90;;;;;;5032562;28;20287;-75
2021/07/29 12:15:22;;;;;;;5.60;2.13;;;28.00;99.90;;;;;;5031907;28;20258;-77
2021/07/29 12:17:51;;;;;;;6.80;2.50;;;28.20;99.90;;;;;;5033735;28;20217;-77
2021/07/29 12:20:20;;;;;;;5.55;2.45;;;28.70;99.90;;;;;;5036376;28;20235;-75
2021/07/29 12:22:47;;;;;;;8.63;2.20;;;28.30;99.90;;;;;;5035937;28;20275;-79
2021/07/29 12:25:31;;;;;;;7.30;2.35;;;27.70;99.90;;;;;;5031946;28;20196;-77
2021/07/29 12:27:58;;;;;;;6.47;2.17;;;27.00;99.90;;;;;;5035712;28;20232;-76
2021/07/29 12:30:32;;;;;;;5.47;2.28;;;27.50;99.90;;;;;;5035450;28;20220;-77
2021/07/29 12:33:12;;;;;;;5.25;2.30;;;28.00;99.90;;;;;;5036159;28;20223;-78
2021/07/29 12:35:40;;;;;;;10.90;2.80;;;27.20;99.90;;;;;;5035680;28;20227;-78
2021/07/29 12:38:08;;;;;;;8.70;2.50;;;26.20;99.90;;;;;;5035405;28;20322;-76
2021/07/29 12:40:35;;;;;;;10.05;2.90;;;25.60;99.90;;;;;;5036052;28;20201;-76
2021/07/29 12:43:22;;;;;;;7.35;2.83;;;25.20;99.90;;;;;;5035889;28;20288;-77
2021/07/29 12:45:54;;;;;;;5.03;2.25;;;24.40;99.90;;;;;;5035509;28;20657;-76
2021/07/29 12:48:23;;;;;;;10.80;2.78;;;23.70;99.90;;;;;;5034465;28;20197;-78
2021/07/29 12:50:51;;;;;;;6.63;2.53;;;23.40;99.90;;;;;;5035930;28;20635;-77
2021/07/29 12:53:18;;;;;;;6.20;2.50;;;23.30;99.90;;;;;;5035921;28;20699;-76
2021/07/29 12:55:47;;;;;;;10.85;2.65;;;23.70;99.90;;;;;;5035292;28;20192;-76